KMCK

Mc Cook Ben Nelson Regional Airport

Mc Cook, Nebraska, USA
METAR KMCK 230053Z AUTO 06008KT 10SM CLR 12/02 A3019 RMK AO2 SLP231 T01170022
Observed Flight Rules
Oct-23 @ 00:53 UTC (16 minutes ago) Visual Flight Rules
Wind Visibility Clouds
60° at 8 knots 10 miles
  • Clear skies
Temperatures Readings
Current 12°C / 54°F
Dewpoint 2°C / 36°F
Humidity 51%
Altimeter 30.19" Hg
Pressure 1023.1 hPa
Elevation 782
METAR KMCK 230053Z AUTO 06008KT 10SM CLR 12/02 A3019 RMK AO2 SLP231 T01170022
Observed Flight Rules
Oct-23 @ 00:53 UTC
(16 minutes ago)
VFR
Wind Visibility
60° at 8 knots 10 miles
Clouds
  • Clear skies
Temperature Dewpoint
12°C / 54°F 2°C / 36°F
Humidity Altimeter Pressure
51% 30.19" Hg 1023.1 hPa